createdAt,value
2023-03-31T00:01:00.585Z,100398.28
2023-03-31T00:11:22.222Z,100395.00
2023-03-31T00:21:44.203Z,100372.63
2023-03-31T00:32:05.675Z,100378.78
2023-03-31T00:42:27.466Z,100357.09
2023-03-31T00:52:51.332Z,100350.91
2023-03-31T01:03:12.853Z,100335.25
2023-03-31T01:13:36.239Z,100307.69
2023-03-31T01:23:57.594Z,100279.44
2023-03-31T01:34:22.068Z,100275.00
2023-03-31T01:44:55.242Z,100249.94
2023-03-31T01:55:24.415Z,100237.56
2023-03-31T02:05:55.260Z,100216.31
2023-03-31T02:16:21.958Z,100213.09
2023-03-31T02:26:48.184Z,100210.59
2023-03-31T02:37:09.679Z,100203.16
2023-03-31T02:47:31.231Z,100172.19
2023-03-31T02:58:12.464Z,100174.97
2023-03-31T03:08:36.828Z,100151.91
2023-03-31T03:18:59.290Z,100137.97
2023-03-31T03:29:20.674Z,100131.25
2023-03-31T03:39:42.016Z,100104.91
2023-03-31T03:50:03.999Z,100090.91
2023-03-31T04:00:25.611Z,100068.78
2023-03-31T04:10:49.227Z,100043.16
2023-03-31T04:21:12.360Z,100022.56
2023-03-31T04:31:36.351Z,99994.41
2023-03-31T04:41:58.692Z,99972.88
2023-03-31T04:52:20.277Z,99966.44
2023-03-31T05:02:41.759Z,99942.19
2023-03-31T05:13:03.376Z,99929.38
2023-03-31T05:23:24.759Z,99922.38
2023-03-31T05:33:46.235Z,99925.25
2023-03-31T05:44:07.639Z,99909.53
2023-03-31T05:54:29.027Z,99908.28
2023-03-31T06:04:50.434Z,99885.13
2023-03-31T06:15:11.803Z,99869.75
2023-03-31T06:25:43.495Z,99856.63
2023-03-31T06:36:15.972Z,99851.00
2023-03-31T06:46:37.375Z,99843.22
2023-03-31T06:56:58.807Z,99837.91
2023-03-31T07:07:20.171Z,99815.28
2023-03-31T07:17:42.224Z,99810.69
2023-03-31T07:28:04.615Z,99790.19
2023-03-31T07:38:26.039Z,99767.34
2023-03-31T07:48:47.690Z,99758.91
2023-03-31T07:59:09.233Z,99735.25
2023-03-31T08:09:33.626Z,99730.47
2023-03-31T08:19:55.055Z,99704.41
2023-03-31T08:30:17.257Z,99697.63
2023-03-31T08:40:39.893Z,99682.47
2023-03-31T08:51:04.825Z,99669.19
2023-03-31T09:01:37.903Z,99646.69
2023-03-31T09:12:10.201Z,99645.94
2023-03-31T09:22:33.000Z,99625.53
2023-03-31T09:33:17.771Z,99610.44
2023-03-31T09:43:40.938Z,99600.72
2023-03-31T09:54:08.448Z,99591.78
2023-03-31T10:04:32.264Z,99591.25
2023-03-31T10:14:54.781Z,99569.31
2023-03-31T10:25:17.431Z,99563.03
2023-03-31T10:35:39.743Z,99560.63
2023-03-31T10:46:02.009Z,99547.91
2023-03-31T10:56:29.509Z,99542.06
2023-03-31T11:06:53.917Z,99529.84
2023-03-31T11:17:21.439Z,99511.69
2023-03-31T11:27:42.932Z,99520.97
2023-03-31T11:38:23.987Z,99519.09
2023-03-31T11:48:59.212Z,99526.97
2023-03-31T11:59:22.703Z,99514.56
2023-03-31T12:10:05.370Z,99506.69
2023-03-31T12:20:29.873Z,99496.09
2023-03-31T12:30:53.724Z,99509.16
2023-03-31T12:41:35.357Z,99498.78
2023-03-31T12:52:07.196Z,99481.22
2023-03-31T13:02:28.638Z,99476.56
2023-03-31T13:13:16.394Z,99464.50
2023-03-31T13:23:45.026Z,99465.34
2023-03-31T13:34:08.116Z,99461.72
2023-03-31T13:44:29.511Z,99458.69
2023-03-31T13:55:20.495Z,99440.22
2023-03-31T14:06:00.794Z,99441.72
2023-03-31T14:16:22.171Z,99439.25
2023-03-31T14:26:46.631Z,99428.41
2023-03-31T14:37:11.499Z,99409.50
2023-03-31T14:47:33.035Z,99424.91
2023-03-31T14:57:56.452Z,99429.13
2023-03-31T15:08:20.559Z,99429.94
2023-03-31T15:18:42.017Z,99423.50
2023-03-31T15:29:16.836Z,99414.44
2023-03-31T15:39:38.821Z,99410.38
2023-03-31T15:50:07.493Z,99396.88
2023-03-31T16:00:31.978Z,99384.03
2023-03-31T16:11:02.892Z,99394.03
2023-03-31T16:21:26.501Z,99387.25
2023-03-31T16:31:47.888Z,99379.03
2023-03-31T16:42:09.281Z,99372.56
2023-03-31T16:52:30.647Z,99364.22
2023-03-31T17:02:52.167Z,99375.06
2023-03-31T17:13:13.601Z,99370.25
2023-03-31T17:23:36.183Z,99366.16
2023-03-31T17:33:57.732Z,99363.97
2023-03-31T17:44:19.094Z,99364.38
2023-03-31T17:54:40.911Z,99369.13
2023-03-31T18:05:02.438Z,99371.47
2023-03-31T18:15:23.934Z,99380.41
2023-03-31T18:25:46.149Z,99390.84
2023-03-31T18:36:08.486Z,99411.00
2023-03-31T18:46:30.060Z,99417.59
2023-03-31T18:56:51.611Z,99406.00
2023-03-31T19:07:13.874Z,99409.34
2023-03-31T19:17:35.825Z,99404.34
2023-03-31T19:27:57.215Z,99424.19
2023-03-31T19:38:18.992Z,99417.78
2023-03-31T19:48:40.524Z,99436.59
2023-03-31T19:59:02.709Z,99424.63
2023-03-31T20:09:25.265Z,99432.78
2023-03-31T20:19:46.657Z,99431.63
2023-03-31T20:30:09.051Z,99432.91
2023-03-31T20:40:30.392Z,99434.84
2023-03-31T20:50:52.077Z,99434.63
2023-03-31T21:01:13.952Z,99428.06
2023-03-31T21:11:35.508Z,99438.75
2023-03-31T21:21:56.924Z,99443.28
2023-03-31T21:32:18.521Z,99440.94
2023-03-31T21:42:40.040Z,99437.59
2023-03-31T21:53:03.063Z,99446.34
2023-03-31T22:03:28.358Z,99434.16
2023-03-31T22:13:50.915Z,99438.50
2023-03-31T22:24:13.230Z,99446.72
2023-03-31T22:34:34.589Z,99448.63
2023-03-31T22:44:56.090Z,99454.75
2023-03-31T22:55:17.583Z,99454.09
2023-03-31T23:05:39.072Z,99462.84
2023-03-31T23:16:08.375Z,99462.03
2023-03-31T23:26:30.695Z,99452.47
2023-03-31T23:36:52.810Z,99452.66
2023-03-31T23:47:14.200Z,99449.81
2023-03-31T23:57:35.584Z,99447.06
